createdAt,value
2022-09-21T00:00:30.493Z,3.88
2022-09-21T00:02:57.957Z,4.43
2022-09-21T00:05:24.995Z,2.80
2022-09-21T00:07:52.142Z,2.72
2022-09-21T00:10:20.401Z,4.93
2022-09-21T00:12:48.658Z,4.15
2022-09-21T00:15:19.836Z,4.72
2022-09-21T00:17:49.981Z,2.67
2022-09-21T00:20:16.923Z,4.13
2022-09-21T00:22:44.252Z,9.38
2022-09-21T00:25:10.876Z,6.05
2022-09-21T00:27:37.854Z,3.65
2022-09-21T00:30:06.872Z,3.85
2022-09-21T00:32:35.514Z,2.08
2022-09-21T00:35:03.230Z,3.67
2022-09-21T00:37:30.690Z,2.67
2022-09-21T00:39:57.327Z,5.95
2022-09-21T00:42:26.109Z,5.60
2022-09-21T00:44:52.788Z,3.85
2022-09-21T00:47:35.879Z,6.07
2022-09-21T00:50:07.826Z,3.88
2022-09-21T00:55:13.116Z,3.83
2022-09-21T00:57:39.750Z,6.40
2022-09-21T01:00:08.948Z,9.85
2022-09-21T01:02:37.629Z,14.48
2022-09-21T01:05:06.251Z,10.32
2022-09-21T01:07:36.954Z,13.25
2022-09-21T01:10:13.082Z,14.45
2022-09-21T01:13:07.633Z,12.30
2022-09-21T01:16:15.984Z,14.38
2022-09-21T01:19:04.481Z,12.48
2022-09-21T01:21:38.885Z,5.95
2022-09-21T01:24:47.907Z,9.50
2022-09-21T01:27:32.636Z,3.85
2022-09-21T01:30:02.514Z,4.28
2022-09-21T01:32:42.258Z,4.53
2022-09-21T01:35:19.842Z,3.63
2022-09-21T01:38:01.832Z,5.80
2022-09-21T01:40:42.223Z,3.40
2022-09-21T01:43:14.390Z,5.15
2022-09-21T01:45:49.156Z,3.97
2022-09-21T01:48:17.417Z,20.75
2022-09-21T01:50:49.925Z,28.70
2022-09-21T01:53:38.267Z,24.83
2022-09-21T01:56:09.953Z,38.92
2022-09-21T01:58:43.519Z,30.80
2022-09-21T02:01:15.169Z,12.27
2022-09-21T02:03:52.098Z,15.40
2022-09-21T02:06:19.269Z,26.30
2022-09-21T02:08:46.682Z,8.02
2022-09-21T02:11:14.026Z,11.73
2022-09-21T02:13:45.984Z,5.03
